Terminal Aerodrome Forecast
Issued by NWS

Home | Current Version | Previous Version | Text Only | Print | Product List | Glossary On
Versions: 1 2 3 4 5 6 7 8 9 10 11 12 13 14 15 16 17 18 19 20 21 22 23 24 25
000
FTUS44 KMAF 010100 AAA
TAFPEQ
TAF AMD
KPEQ 010107Z 0101/0124 08005KT 1SM BR OVC003
      TEMPO 0111/0115 1/2SM FG OVC001
     FM011600 11004KT P6SM SCT015=

USA.gov is the U.S. government's official web portal to all federal, state and local government web resources and services.